createdAt,value
2023-05-06T00:00:15.774Z,12.50
2023-05-06T00:01:15.755Z,12.54
2023-05-06T00:02:15.794Z,12.43
2023-05-06T00:03:15.843Z,12.42
2023-05-06T00:04:15.741Z,12.39
2023-05-06T00:05:15.730Z,12.47
2023-05-06T00:06:15.713Z,12.46
2023-05-06T00:07:15.775Z,12.47
2023-05-06T00:08:15.729Z,12.46
2023-05-06T00:09:15.691Z,12.50
2023-05-06T00:10:15.720Z,12.47
2023-05-06T00:11:15.712Z,12.50
2023-05-06T00:12:15.696Z,12.43
2023-05-06T00:13:15.733Z,12.47
2023-05-06T00:14:15.651Z,12.43
2023-05-06T00:15:15.639Z,12.53
2023-05-06T00:16:15.636Z,12.45
2023-05-06T00:17:15.664Z,12.46
2023-05-06T00:18:15.619Z,12.42
2023-05-06T00:19:15.613Z,12.43
2023-05-06T00:20:15.610Z,12.42
2023-05-06T00:21:15.595Z,12.37
2023-05-06T00:22:15.604Z,12.31
2023-05-06T00:23:15.646Z,12.31
2023-05-06T00:24:15.576Z,12.21
2023-05-06T00:25:15.565Z,12.20
2023-05-06T00:26:15.558Z,12.17
2023-05-06T00:27:15.576Z,12.22
2023-05-06T00:28:15.547Z,12.12
2023-05-06T00:29:15.533Z,12.17
2023-05-06T00:30:15.531Z,12.07
2023-05-06T00:31:15.575Z,12.07
2023-05-06T00:32:15.536Z,12.03
2023-05-06T00:33:15.508Z,12.02
2023-05-06T00:34:15.484Z,11.97
2023-05-06T00:35:15.489Z,11.91
2023-05-06T00:36:15.506Z,11.94
2023-05-06T00:37:15.472Z,12.07
2023-05-06T00:38:15.475Z,11.88
2023-05-06T00:39:15.556Z,11.99
2023-05-06T00:40:15.447Z,11.91
2023-05-06T00:41:15.504Z,11.91
2023-05-06T00:42:15.437Z,11.95
2023-05-06T00:43:15.452Z,11.91
2023-05-06T00:44:15.412Z,11.95
2023-05-06T00:45:15.447Z,11.83
2023-05-06T00:46:15.483Z,12.00
2023-05-06T00:47:15.387Z,11.90
2023-05-06T00:48:15.403Z,11.95
2023-05-06T00:49:15.380Z,11.95
2023-05-06T00:50:16.298Z,12.00
2023-05-06T00:51:15.377Z,12.07
2023-05-06T00:52:15.357Z,11.97
2023-05-06T00:53:15.349Z,11.95
2023-05-06T00:54:15.335Z,11.99
2023-05-06T00:55:15.424Z,12.00
2023-05-06T00:56:15.327Z,11.91
2023-05-06T00:57:15.309Z,11.95
2023-05-06T00:58:15.302Z,11.90
2023-05-06T00:59:15.327Z,12.02
2023-05-06T01:00:15.319Z,11.97
2023-05-06T01:01:15.341Z,11.99
2023-05-06T01:02:15.333Z,12.02
2023-05-06T01:03:15.367Z,12.03
2023-05-06T01:04:15.292Z,12.03
2023-05-06T01:05:15.278Z,12.10
2023-05-06T01:06:15.257Z,11.99
2023-05-06T01:07:15.237Z,11.97
2023-05-06T01:08:15.233Z,12.04
2023-05-06T01:09:15.246Z,11.95
2023-05-06T01:10:15.213Z,12.07
2023-05-06T01:11:15.892Z,12.03
2023-05-06T01:12:16.201Z,11.99
2023-05-06T01:13:15.268Z,12.03
2023-05-06T01:14:15.210Z,12.06
2023-05-06T01:15:15.179Z,12.12
2023-05-06T01:16:15.170Z,12.15
2023-05-06T01:17:15.231Z,12.12
2023-05-06T01:18:15.167Z,12.09
2023-05-06T01:19:16.184Z,12.20
2023-05-06T01:20:15.146Z,12.18
2023-05-06T01:21:15.138Z,12.17
2023-05-06T01:22:15.124Z,12.10
2023-05-06T01:23:15.151Z,12.10
2023-05-06T01:24:15.104Z,12.15
2023-05-06T01:25:15.095Z,12.09
2023-05-06T01:26:15.094Z,12.06
2023-05-06T01:27:15.104Z,12.06
2023-05-06T01:28:15.097Z,12.00
2023-05-06T01:29:15.065Z,11.97
2023-05-06T01:30:15.063Z,12.13
2023-05-06T01:31:15.082Z,12.09
2023-05-06T01:32:15.064Z,12.10
2023-05-06T01:33:15.065Z,12.10
2023-05-06T01:34:15.022Z,12.20
2023-05-06T01:35:16.009Z,12.22
2023-05-06T01:36:16.025Z,12.22
2023-05-06T01:37:15.024Z,12.20
2023-05-06T01:38:15.002Z,12.27
2023-05-06T01:39:14.982Z,12.31
2023-05-06T01:40:14.982Z,12.32
2023-05-06T01:41:14.968Z,12.39
2023-05-06T01:42:15.012Z,12.39
2023-05-06T01:43:14.959Z,12.31
2023-05-06T01:44:14.989Z,12.42
2023-05-06T01:45:14.942Z,12.47
2023-05-06T01:46:14.992Z,12.39
2023-05-06T01:47:14.952Z,12.29
2023-05-06T01:48:14.919Z,12.36
2023-05-06T01:49:14.914Z,12.37
2023-05-06T01:50:14.902Z,12.32
2023-05-06T01:51:14.923Z,12.28
2023-05-06T01:52:14.898Z,12.35
2023-05-06T01:53:15.872Z,12.25
2023-05-06T01:54:14.870Z,12.35
2023-05-06T01:55:14.858Z,12.35
2023-05-06T01:56:14.879Z,12.40
2023-05-06T01:57:14.830Z,12.35
2023-05-06T01:58:15.853Z,12.35
2023-05-06T01:59:14.883Z,12.29
2023-05-06T02:00:14.850Z,12.31
2023-05-06T02:01:14.871Z,12.27
2023-05-06T02:02:14.805Z,12.32
2023-05-06T02:03:14.862Z,12.31
2023-05-06T02:04:14.830Z,12.28
2023-05-06T02:05:15.804Z,12.32
2023-05-06T02:06:14.786Z,12.28
2023-05-06T02:07:14.796Z,12.22
2023-05-06T02:08:14.767Z,12.21
2023-05-06T02:09:14.753Z,12.17
2023-05-06T02:10:14.769Z,12.18
2023-05-06T02:11:14.736Z,12.21
2023-05-06T02:12:14.728Z,12.28
2023-05-06T02:13:14.791Z,12.15
2023-05-06T02:14:14.734Z,12.22
2023-05-06T02:15:14.792Z,12.24
2023-05-06T02:16:14.719Z,12.31
2023-05-06T02:17:14.686Z,12.27
2023-05-06T02:18:14.673Z,12.27
2023-05-06T02:19:14.699Z,12.36
2023-05-06T02:20:14.670Z,12.27
2023-05-06T02:21:14.647Z,12.29
2023-05-06T02:22:14.648Z,12.25
2023-05-06T02:23:14.646Z,12.27
2023-05-06T02:24:14.658Z,12.36
2023-05-06T02:25:14.624Z,12.36
2023-05-06T02:26:14.610Z,12.40
2023-05-06T02:27:14.611Z,12.39
2023-05-06T02:28:14.634Z,12.36
2023-05-06T02:29:14.612Z,12.45
2023-05-06T02:30:14.595Z,12.45
2023-05-06T02:31:14.652Z,12.45
2023-05-06T02:32:14.583Z,12.36
2023-05-06T02:33:14.593Z,12.39
2023-05-06T02:34:14.548Z,12.45
2023-05-06T02:35:14.555Z,12.45
2023-05-06T02:36:14.543Z,12.47
2023-05-06T02:37:14.532Z,12.42
2023-05-06T02:38:14.545Z,12.39
2023-05-06T02:39:14.514Z,12.39
2023-05-06T02:40:14.501Z,12.35
2023-05-06T02:41:14.512Z,12.42
2023-05-06T02:42:14.542Z,12.47
2023-05-06T02:43:14.506Z,12.40
2023-05-06T02:44:14.468Z,12.39
2023-05-06T02:45:14.478Z,12.37
2023-05-06T02:46:14.474Z,12.35
2023-05-06T02:47:14.553Z,12.35
2023-05-06T02:48:14.444Z,12.28
2023-05-06T02:49:14.441Z,12.27
2023-05-06T02:50:14.435Z,12.36
2023-05-06T02:51:14.417Z,12.24
2023-05-06T02:52:14.437Z,12.27
2023-05-06T02:53:14.397Z,12.22
2023-05-06T02:54:14.407Z,12.28
2023-05-06T02:55:14.383Z,12.28
2023-05-06T02:56:14.406Z,12.22
2023-05-06T02:57:14.388Z,12.35
2023-05-06T02:58:14.373Z,12.21
2023-05-06T02:59:14.355Z,12.28
2023-05-06T03:00:14.341Z,12.27
2023-05-06T03:01:14.386Z,12.31
2023-05-06T03:02:14.330Z,12.29
2023-05-06T03:03:14.318Z,12.28
2023-05-06T03:04:14.384Z,12.24
2023-05-06T03:05:14.315Z,12.29
2023-05-06T03:06:15.315Z,12.31
2023-05-06T03:07:14.284Z,12.29
2023-05-06T03:08:14.277Z,12.25
2023-05-06T03:09:14.266Z,12.20
2023-05-06T03:10:14.293Z,12.21
2023-05-06T03:11:14.288Z,12.24
2023-05-06T03:12:14.257Z,12.17
2023-05-06T03:13:14.445Z,12.18
2023-05-06T03:14:14.234Z,12.25
2023-05-06T03:15:14.245Z,12.17
2023-05-06T03:16:14.289Z,12.24
2023-05-06T03:17:14.204Z,12.15
2023-05-06T03:18:14.201Z,12.12
2023-05-06T03:19:14.256Z,12.10
2023-05-06T03:20:14.210Z,12.13
2023-05-06T03:21:14.219Z,12.18
2023-05-06T03:22:14.187Z,12.09
2023-05-06T03:23:14.171Z,12.15
2023-05-06T03:24:14.159Z,12.12
2023-05-06T03:25:14.193Z,12.10
2023-05-06T03:26:14.157Z,11.97
2023-05-06T03:27:14.135Z,12.09
2023-05-06T03:28:14.132Z,11.97
2023-05-06T03:29:14.151Z,12.09
2023-05-06T03:30:14.129Z,12.03
2023-05-06T03:31:14.137Z,12.13
2023-05-06T03:32:14.105Z,12.12
2023-05-06T03:33:14.096Z,12.09
2023-05-06T03:34:14.128Z,12.13
2023-05-06T03:35:14.144Z,12.07
2023-05-06T03:36:14.067Z,12.18
2023-05-06T03:37:14.056Z,12.13
2023-05-06T03:38:14.048Z,12.13
2023-05-06T03:39:14.079Z,12.12
2023-05-06T03:40:14.036Z,12.18
2023-05-06T03:41:14.027Z,12.04
2023-05-06T03:42:14.039Z,12.27
2023-05-06T03:43:14.031Z,12.17
2023-05-06T03:44:14.031Z,12.10
2023-05-06T03:45:13.998Z,12.12
2023-05-06T03:46:14.042Z,12.09
2023-05-06T03:47:13.978Z,11.97
2023-05-06T03:48:14.106Z,12.00
2023-05-06T03:49:14.002Z,11.90
2023-05-06T03:50:13.969Z,12.02
2023-05-06T03:51:14.009Z,12.06
2023-05-06T03:52:13.933Z,12.04
2023-05-06T03:53:13.959Z,12.07
2023-05-06T03:54:13.920Z,12.04
2023-05-06T03:55:13.908Z,12.07
2023-05-06T03:56:13.899Z,12.03
2023-05-06T03:57:13.936Z,11.94
2023-05-06T03:58:13.916Z,11.97
2023-05-06T03:59:13.870Z,12.02
2023-05-06T04:00:13.870Z,12.17
2023-05-06T04:01:13.863Z,12.06
2023-05-06T04:02:13.914Z,12.09
2023-05-06T04:03:13.983Z,12.12
2023-05-06T04:04:13.977Z,12.03
2023-05-06T04:05:13.825Z,12.06
2023-05-06T04:06:13.822Z,12.04
2023-05-06T04:07:13.904Z,12.03
2023-05-06T04:08:13.808Z,11.99
2023-05-06T04:09:13.792Z,12.02
2023-05-06T04:10:13.786Z,11.99
2023-05-06T04:11:13.781Z,11.97
2023-05-06T04:12:13.814Z,11.97
2023-05-06T04:13:13.846Z,12.02
2023-05-06T04:14:13.766Z,11.97
2023-05-06T04:15:13.744Z,11.97
2023-05-06T04:16:13.796Z,12.03
2023-05-06T04:17:13.759Z,12.00
2023-05-06T04:18:13.726Z,11.97
2023-05-06T04:19:13.723Z,11.99
2023-05-06T04:20:13.708Z,11.99
2023-05-06T04:21:13.747Z,12.00
2023-05-06T04:22:13.715Z,11.99
2023-05-06T04:23:13.796Z,12.00
2023-05-06T04:24:13.699Z,12.03
2023-05-06T04:25:13.674Z,12.00
2023-05-06T04:26:13.686Z,11.87
2023-05-06T04:27:13.656Z,11.97
2023-05-06T04:28:13.662Z,11.91
2023-05-06T04:29:13.634Z,12.02
2023-05-06T04:30:13.659Z,12.07
2023-05-06T04:31:13.673Z,12.02
2023-05-06T04:32:13.633Z,12.02
2023-05-06T04:33:13.658Z,12.04
2023-05-06T04:34:13.604Z,11.95
2023-05-06T04:35:13.615Z,11.87
2023-05-06T04:36:13.589Z,11.99
2023-05-06T04:37:13.574Z,11.99
2023-05-06T04:38:13.568Z,11.99
2023-05-06T04:39:13.565Z,11.91
2023-05-06T04:40:13.570Z,11.91
2023-05-06T04:41:13.548Z,12.00
2023-05-06T04:42:13.537Z,12.04
2023-05-06T04:43:13.530Z,11.95
2023-05-06T04:44:13.548Z,12.09
2023-05-06T04:45:13.542Z,12.12
2023-05-06T04:46:13.538Z,12.10
2023-05-06T04:47:13.493Z,12.12
2023-05-06T04:48:13.496Z,12.22
2023-05-06T04:49:13.539Z,12.17
2023-05-06T04:50:13.468Z,12.18
2023-05-06T04:51:13.465Z,12.04
2023-05-06T04:52:13.458Z,12.03
2023-05-06T04:53:13.453Z,12.00
2023-05-06T04:54:13.461Z,11.91
2023-05-06T04:55:13.442Z,11.86
2023-05-06T04:56:13.420Z,11.91
2023-05-06T04:57:13.445Z,11.88
2023-05-06T04:58:13.407Z,12.02
2023-05-06T04:59:13.428Z,12.06
2023-05-06T05:00:13.410Z,12.13
2023-05-06T05:01:13.422Z,12.04
2023-05-06T05:02:13.384Z,12.29
2023-05-06T05:03:13.504Z,12.31
2023-05-06T05:04:13.390Z,12.47
2023-05-06T05:05:13.353Z,12.36
2023-05-06T05:06:13.347Z,12.35
2023-05-06T05:07:13.328Z,12.39
2023-05-06T05:08:14.361Z,12.43
2023-05-06T05:09:13.327Z,12.40
2023-05-06T05:10:13.313Z,12.29
2023-05-06T05:11:13.306Z,12.27
2023-05-06T05:12:13.311Z,12.18
2023-05-06T05:13:13.358Z,12.29
2023-05-06T05:14:13.277Z,12.20
2023-05-06T05:15:14.277Z,12.28
2023-05-06T05:16:13.269Z,12.32
2023-05-06T05:17:13.306Z,12.28
2023-05-06T05:18:13.284Z,12.18
2023-05-06T05:19:13.245Z,12.28
2023-05-06T05:20:13.236Z,12.29
2023-05-06T05:21:13.233Z,12.32
2023-05-06T05:22:13.271Z,12.12
2023-05-06T05:23:13.206Z,12.13
2023-05-06T05:24:13.203Z,12.22
2023-05-06T05:25:13.330Z,12.15
2023-05-06T05:26:13.181Z,12.24
2023-05-06T05:27:13.264Z,12.21
2023-05-06T05:28:13.169Z,12.28
2023-05-06T05:29:13.161Z,12.29
2023-05-06T05:30:13.156Z,12.25
2023-05-06T05:31:13.196Z,12.31
2023-05-06T05:32:13.164Z,12.32
2023-05-06T05:33:13.148Z,12.36
2023-05-06T05:34:13.119Z,12.43
2023-05-06T05:35:13.111Z,12.46
2023-05-06T05:36:13.119Z,12.54
2023-05-06T05:37:13.149Z,12.55
2023-05-06T05:38:13.088Z,12.60
2023-05-06T05:39:13.081Z,12.61
2023-05-06T05:40:13.078Z,12.76
2023-05-06T05:41:14.034Z,12.79
2023-05-06T05:42:13.061Z,12.80
2023-05-06T05:43:13.163Z,12.93
2023-05-06T05:44:13.045Z,13.00
2023-05-06T05:45:13.066Z,13.05
2023-05-06T05:46:13.077Z,13.05
2023-05-06T05:47:13.020Z,13.01
2023-05-06T05:48:13.003Z,13.11
2023-05-06T05:49:13.998Z,13.09
2023-05-06T05:50:13.050Z,13.16
2023-05-06T05:51:12.988Z,13.12
2023-05-06T05:52:12.982Z,13.12
2023-05-06T05:53:12.976Z,13.27
2023-05-06T05:54:12.964Z,13.50
2023-05-06T05:55:12.983Z,13.56
2023-05-06T05:56:12.961Z,13.67
2023-05-06T05:57:12.938Z,13.77
2023-05-06T05:58:12.930Z,13.81
2023-05-06T05:59:12.951Z,14.03
2023-05-06T06:00:13.765Z,14.10
2023-05-06T06:01:13.909Z,14.32
2023-05-06T06:02:12.898Z,14.85
2023-05-06T06:03:12.989Z,14.94
2023-05-06T06:04:12.995Z,14.97
2023-05-06T06:05:12.888Z,15.02
2023-05-06T06:06:12.869Z,15.15
2023-05-06T06:07:12.861Z,15.22
2023-05-06T06:08:12.857Z,15.61
2023-05-06T06:09:12.871Z,16.32
2023-05-06T06:10:12.845Z,17.19
2023-05-06T06:11:12.833Z,17.92
2023-05-06T06:12:12.826Z,19.11
2023-05-06T06:13:12.877Z,19.24
2023-05-06T06:14:12.838Z,20.02
2023-05-06T06:15:13.013Z,21.37
2023-05-06T06:16:12.825Z,21.73
2023-05-06T06:17:12.780Z,22.33
2023-05-06T06:18:12.805Z,23.06
2023-05-06T06:19:12.765Z,23.73
2023-05-06T06:20:12.772Z,23.92
2023-05-06T06:21:12.752Z,24.14
2023-05-06T06:22:12.754Z,24.10
2023-05-06T06:23:12.761Z,24.32
2023-05-06T06:24:12.747Z,24.81
2023-05-06T06:25:12.822Z,25.03
2023-05-06T06:26:12.705Z,25.16
2023-05-06T06:27:12.889Z,25.25
2023-05-06T06:28:12.720Z,24.99
2023-05-06T06:29:12.698Z,24.29
2023-05-06T06:30:12.688Z,23.61
2023-05-06T06:31:12.772Z,22.83
2023-05-06T06:32:12.846Z,21.88
2023-05-06T06:33:12.658Z,21.21
2023-05-06T06:34:12.653Z,20.51
2023-05-06T06:35:12.645Z,19.94
2023-05-06T06:36:12.639Z,19.31
2023-05-06T06:37:12.658Z,18.98
2023-05-06T06:38:12.636Z,18.83
2023-05-06T06:39:12.620Z,18.37
2023-05-06T06:40:12.654Z,18.37
2023-05-06T06:41:12.622Z,18.31
2023-05-06T06:42:12.622Z,18.45
2023-05-06T06:43:12.590Z,18.75
2023-05-06T06:44:12.584Z,18.83
2023-05-06T06:45:12.645Z,18.70
2023-05-06T06:46:12.616Z,18.52
2023-05-06T06:47:12.577Z,18.88
2023-05-06T06:48:12.585Z,18.74
2023-05-06T06:49:12.541Z,18.47
2023-05-06T06:50:12.557Z,18.33
2023-05-06T06:51:12.564Z,18.44
2023-05-06T06:52:12.519Z,19.54
2023-05-06T06:53:12.511Z,19.91
2023-05-06T06:54:12.501Z,19.89
2023-05-06T06:55:12.749Z,19.92
2023-05-06T06:56:12.519Z,19.58
2023-05-06T06:57:12.482Z,19.18
2023-05-06T06:58:12.506Z,19.16
2023-05-06T06:59:12.462Z,19.76
2023-05-06T07:00:12.498Z,21.00
2023-05-06T07:01:12.480Z,22.11
2023-05-06T07:02:12.445Z,22.93
2023-05-06T07:03:12.438Z,23.88
2023-05-06T07:04:12.447Z,23.91
2023-05-06T07:05:12.736Z,23.41
2023-05-06T07:06:12.421Z,22.65
2023-05-06T07:07:12.409Z,22.83
2023-05-06T07:08:12.412Z,23.25
2023-05-06T07:09:12.399Z,24.26
2023-05-06T07:10:12.409Z,25.07
2023-05-06T07:11:12.378Z,25.58
2023-05-06T07:12:12.421Z,25.68
2023-05-06T07:13:12.388Z,25.91
2023-05-06T07:14:12.359Z,26.36
2023-05-06T07:15:12.561Z,26.31
2023-05-06T07:16:12.344Z,25.68
2023-05-06T07:17:12.373Z,25.91
2023-05-06T07:18:12.388Z,26.60
2023-05-06T07:19:12.381Z,27.05
2023-05-06T07:20:12.349Z,27.45
2023-05-06T07:21:12.316Z,28.30
2023-05-06T07:22:12.309Z,28.81
2023-05-06T07:23:12.290Z,28.41
2023-05-06T07:24:12.324Z,28.78
2023-05-06T07:25:12.404Z,28.86
2023-05-06T07:26:12.284Z,28.49
2023-05-06T07:27:12.267Z,27.44
2023-05-06T07:28:12.263Z,26.48
2023-05-06T07:29:12.281Z,25.70
2023-05-06T07:30:12.277Z,24.76
2023-05-06T07:31:12.273Z,24.13
2023-05-06T07:32:12.239Z,23.65
2023-05-06T07:33:12.230Z,23.06
2023-05-06T07:34:12.249Z,21.99
2023-05-06T07:35:12.490Z,21.39
2023-05-06T07:36:12.208Z,20.75
2023-05-06T07:37:12.213Z,20.32
2023-05-06T07:38:12.201Z,20.11
2023-05-06T07:39:12.218Z,20.11
2023-05-06T07:40:12.183Z,20.10
2023-05-06T07:41:12.173Z,20.11
2023-05-06T07:42:12.178Z,19.79
2023-05-06T07:43:12.161Z,19.79
2023-05-06T07:44:12.176Z,19.56
2023-05-06T07:45:12.304Z,19.29
2023-05-06T07:46:12.175Z,18.99
2023-05-06T07:47:12.188Z,18.99
2023-05-06T07:48:12.191Z,20.43
2023-05-06T07:49:12.144Z,21.69
2023-05-06T07:50:12.107Z,22.84
2023-05-06T07:51:12.161Z,24.05
2023-05-06T07:52:12.092Z,24.81
2023-05-06T07:53:12.117Z,25.38
2023-05-06T07:54:12.076Z,26.18
2023-05-06T07:55:12.286Z,26.55
2023-05-06T07:56:12.079Z,27.22
2023-05-06T07:57:12.066Z,27.87
2023-05-06T07:58:12.127Z,27.78
2023-05-06T07:59:12.088Z,27.74
2023-05-06T08:00:12.042Z,27.54
2023-05-06T08:01:12.082Z,27.89
2023-05-06T08:02:12.057Z,28.01
2023-05-06T08:03:12.159Z,28.07
2023-05-06T08:04:12.106Z,27.82
2023-05-06T08:05:12.350Z,27.71
2023-05-06T08:06:12.003Z,27.78
2023-05-06T08:07:12.091Z,27.82
2023-05-06T08:08:11.982Z,27.74
2023-05-06T08:09:14.864Z,27.54
2023-05-06T08:10:13.995Z,27.39
2023-05-06T08:11:11.979Z,27.21
2023-05-06T08:12:11.989Z,26.80
2023-05-06T08:13:12.013Z,27.05
2023-05-06T08:14:11.941Z,27.10
2023-05-06T08:15:12.048Z,26.74
2023-05-06T08:16:11.990Z,26.40
2023-05-06T08:17:11.959Z,26.34
2023-05-06T08:18:21.894Z,26.07
2023-05-06T08:19:13.912Z,26.36
2023-05-06T08:20:11.904Z,26.29
2023-05-06T08:21:11.933Z,25.06
2023-05-06T08:22:11.911Z,24.38
2023-05-06T08:23:11.934Z,23.99
2023-05-06T08:24:11.879Z,23.28
2023-05-06T08:25:12.168Z,23.05
2023-05-06T08:26:11.880Z,22.54
2023-05-06T08:27:12.862Z,21.85
2023-05-06T08:28:11.851Z,21.73
2023-05-06T08:29:11.852Z,22.13
2023-05-06T08:30:11.848Z,21.82
2023-05-06T08:31:11.897Z,21.76
2023-05-06T08:32:11.880Z,21.82
2023-05-06T08:33:11.829Z,21.46
2023-05-06T08:34:11.805Z,21.29
2023-05-06T08:35:12.163Z,21.70
2023-05-06T08:36:11.833Z,22.20
2023-05-06T08:37:11.798Z,22.87
2023-05-06T08:38:11.790Z,23.36
2023-05-06T08:39:11.908Z,24.01
2023-05-06T08:40:11.795Z,24.68
2023-05-06T08:41:11.789Z,25.26
2023-05-06T08:42:11.766Z,25.58
2023-05-06T08:43:11.757Z,25.40
2023-05-06T08:44:11.745Z,25.85
2023-05-06T08:45:11.903Z,26.37
2023-05-06T08:46:11.740Z,26.38
2023-05-06T08:47:12.728Z,26.43
2023-05-06T08:48:11.724Z,26.18
2023-05-06T08:49:11.717Z,25.91
2023-05-06T08:50:11.735Z,25.93
2023-05-06T08:51:11.692Z,26.03
2023-05-06T08:52:11.694Z,26.45
2023-05-06T08:53:11.677Z,26.40
2023-05-06T08:54:11.699Z,26.16
2023-05-06T08:55:11.981Z,26.51
2023-05-06T08:56:12.665Z,26.75
2023-05-06T08:57:12.564Z,26.55
2023-05-06T08:58:12.654Z,26.71
2023-05-06T08:59:11.660Z,26.65
2023-05-06T09:00:11.631Z,26.56
2023-05-06T09:01:11.667Z,26.43
2023-05-06T09:02:11.691Z,26.53
2023-05-06T09:03:11.674Z,26.55
2023-05-06T09:04:11.627Z,26.31
2023-05-06T09:05:11.763Z,25.98
2023-05-06T09:06:11.587Z,25.95
2023-05-06T09:07:11.689Z,25.48
2023-05-06T09:08:11.698Z,25.35
2023-05-06T09:09:12.595Z,25.47
2023-05-06T09:10:11.737Z,25.85
2023-05-06T09:11:11.632Z,26.02
2023-05-06T09:12:11.570Z,26.13
2023-05-06T09:13:11.603Z,25.88
2023-05-06T09:14:11.573Z,25.63
2023-05-06T09:15:11.850Z,25.66
2023-05-06T09:16:11.567Z,25.91
2023-05-06T09:17:11.591Z,26.13
2023-05-06T09:18:11.724Z,26.25
2023-05-06T09:19:11.507Z,26.31
2023-05-06T09:20:11.496Z,26.13
2023-05-06T09:21:11.491Z,25.43
2023-05-06T09:22:11.486Z,25.21
2023-05-06T09:23:11.494Z,24.99
2023-05-06T09:24:11.495Z,25.18
2023-05-06T09:25:11.813Z,25.18
2023-05-06T09:26:11.466Z,24.80
2023-05-06T09:27:12.339Z,24.32
2023-05-06T09:28:11.474Z,24.57
2023-05-06T09:29:11.437Z,23.56
2023-05-06T09:30:11.429Z,23.81
2023-05-06T09:31:11.471Z,23.93
2023-05-06T09:32:11.441Z,23.98
2023-05-06T09:33:11.478Z,23.68
2023-05-06T09:34:11.403Z,23.20
2023-05-06T09:35:11.552Z,22.80
2023-05-06T09:36:11.375Z,22.43
2023-05-06T09:37:11.399Z,22.15
2023-05-06T09:38:11.375Z,21.99
2023-05-06T09:39:11.356Z,22.13
2023-05-06T09:40:11.358Z,22.41
2023-05-06T09:41:11.378Z,22.57
2023-05-06T09:42:11.366Z,22.85
2023-05-06T09:43:11.448Z,22.85
2023-05-06T09:44:11.324Z,22.85
2023-05-06T09:45:12.495Z,23.00
2023-05-06T09:46:11.374Z,23.06
2023-05-06T09:47:11.306Z,23.05
2023-05-06T09:48:11.306Z,22.99
2023-05-06T09:49:11.287Z,22.80
2023-05-06T09:50:11.284Z,22.54
2023-05-06T09:51:11.296Z,22.60
2023-05-06T09:52:11.282Z,22.53
2023-05-06T09:53:11.268Z,22.59
2023-05-06T09:54:11.250Z,22.80
2023-05-06T09:55:11.488Z,22.41
2023-05-06T09:56:11.268Z,22.30
2023-05-06T09:57:11.233Z,21.77
2023-05-06T09:58:11.338Z,21.14
2023-05-06T09:59:11.333Z,21.12
2023-05-06T10:00:11.228Z,21.12
2023-05-06T10:01:12.039Z,21.07
2023-05-06T10:02:11.207Z,20.84
2023-05-06T10:03:11.332Z,20.74
2023-05-06T10:04:11.336Z,20.77
2023-05-06T10:05:12.683Z,20.81
2023-05-06T10:06:11.152Z,20.80
2023-05-06T10:07:11.149Z,20.75
2023-05-06T10:08:11.132Z,20.97
2023-05-06T10:09:11.132Z,21.30
2023-05-06T10:10:11.153Z,21.48
2023-05-06T10:11:11.125Z,21.79
2023-05-06T10:12:11.108Z,22.07
2023-05-06T10:13:11.167Z,22.10
2023-05-06T10:14:11.128Z,21.95
2023-05-06T10:15:11.425Z,21.82
2023-05-06T10:16:12.758Z,21.76
2023-05-06T10:17:11.064Z,21.46
2023-05-06T10:18:11.129Z,21.21
2023-05-06T10:19:11.068Z,21.33
2023-05-06T10:20:11.072Z,21.67
2023-05-06T10:21:11.029Z,21.82
2023-05-06T10:22:11.029Z,21.50
2023-05-06T10:23:11.037Z,21.37
2023-05-06T10:24:11.044Z,21.62
2023-05-06T10:25:11.233Z,21.48
2023-05-06T10:26:10.997Z,21.43
2023-05-06T10:27:10.988Z,21.21
2023-05-06T10:28:22.258Z,21.30
2023-05-06T10:29:12.025Z,21.48
2023-05-06T10:30:10.980Z,21.85
2023-05-06T10:31:11.063Z,22.17
2023-05-06T10:32:10.950Z,22.44
2023-05-06T10:33:10.967Z,22.45
2023-05-06T10:34:10.972Z,22.36
2023-05-06T10:35:11.111Z,22.07
2023-05-06T10:36:10.912Z,21.77
2023-05-06T10:37:10.901Z,21.64
2023-05-06T10:38:10.938Z,21.40
2023-05-06T10:39:10.892Z,20.84
2023-05-06T10:40:10.892Z,20.51
2023-05-06T10:41:10.868Z,20.19
2023-05-06T10:42:10.882Z,20.07
2023-05-06T10:43:10.879Z,19.70
2023-05-06T10:44:10.852Z,19.55
2023-05-06T10:45:11.047Z,19.56
2023-05-06T10:46:10.928Z,19.71
2023-05-06T10:47:10.864Z,19.89
2023-05-06T10:48:10.835Z,20.24
2023-05-06T10:49:10.840Z,20.00
2023-05-06T10:50:10.811Z,20.03
2023-05-06T10:51:10.805Z,19.94
2023-05-06T10:52:10.854Z,19.92
2023-05-06T10:53:10.784Z,20.07
2023-05-06T10:54:10.772Z,20.31
2023-05-06T10:55:10.992Z,20.50
2023-05-06T10:56:10.752Z,20.74
2023-05-06T10:57:10.782Z,21.11
2023-05-06T10:58:10.740Z,21.51
2023-05-06T10:59:10.753Z,21.67
2023-05-06T11:00:10.737Z,21.73
2023-05-06T11:01:10.755Z,21.96
2023-05-06T11:02:10.814Z,21.99
2023-05-06T11:03:10.877Z,21.80
2023-05-06T11:04:10.715Z,21.77
2023-05-06T11:05:10.938Z,21.45
2023-05-06T11:06:10.700Z,20.97
2023-05-06T11:07:10.696Z,20.62
2023-05-06T11:08:10.658Z,20.51
2023-05-06T11:09:10.649Z,20.69
2023-05-06T11:10:10.637Z,21.05
2023-05-06T11:11:10.671Z,21.37
2023-05-06T11:12:10.635Z,21.48
2023-05-06T11:13:10.674Z,21.77
2023-05-06T11:14:10.601Z,21.93
2023-05-06T11:15:10.770Z,21.96
2023-05-06T11:16:10.798Z,21.79
2023-05-06T11:17:10.624Z,21.82
2023-05-06T11:18:10.572Z,21.80
2023-05-06T11:19:10.581Z,21.95
2023-05-06T11:20:10.787Z,22.07
2023-05-06T11:21:10.591Z,22.11
2023-05-06T11:22:10.555Z,21.64
2023-05-06T11:23:10.547Z,21.67
2023-05-06T11:24:10.556Z,21.22
2023-05-06T11:25:10.577Z,21.27
2023-05-06T11:26:10.541Z,21.45
2023-05-06T11:27:10.508Z,21.42
2023-05-06T11:28:10.512Z,21.52
2023-05-06T11:29:10.497Z,21.72
2023-05-06T11:30:10.704Z,21.76
2023-05-06T11:31:10.486Z,21.82
2023-05-06T11:32:10.469Z,21.80
2023-05-06T11:33:10.527Z,21.70
2023-05-06T11:34:10.474Z,21.30
2023-05-06T11:35:10.516Z,21.00
2023-05-06T11:36:10.449Z,21.18
2023-05-06T11:37:10.441Z,21.37
2023-05-06T11:38:10.490Z,21.21
2023-05-06T11:39:10.441Z,21.29
2023-05-06T11:40:10.676Z,21.40
2023-05-06T11:41:10.396Z,21.60
2023-05-06T11:42:10.405Z,21.80
2023-05-06T11:43:10.384Z,22.18
2023-05-06T11:44:11.546Z,22.22
2023-05-06T11:45:11.379Z,22.04
2023-05-06T11:46:10.394Z,22.18
2023-05-06T11:47:10.354Z,21.93
2023-05-06T11:48:10.340Z,22.04
2023-05-06T11:49:10.372Z,22.00
2023-05-06T11:50:10.565Z,21.82
2023-05-06T11:51:10.321Z,21.72
2023-05-06T11:52:10.319Z,21.69
2023-05-06T11:53:10.325Z,21.69
2023-05-06T11:54:10.314Z,21.52
2023-05-06T11:55:10.297Z,21.51
2023-05-06T11:56:10.277Z,21.69
2023-05-06T11:57:10.279Z,21.83
2023-05-06T11:58:10.292Z,22.13
2023-05-06T11:59:10.246Z,22.45
2023-05-06T12:00:10.489Z,22.63
2023-05-06T12:01:10.246Z,22.59
2023-05-06T12:02:10.231Z,22.84
2023-05-06T12:03:10.330Z,23.06
2023-05-06T12:04:10.452Z,23.23
2023-05-06T12:05:10.202Z,23.20
2023-05-06T12:06:10.193Z,22.91
2023-05-06T12:07:10.202Z,22.81
2023-05-06T12:08:23.406Z,22.53
2023-05-06T12:09:12.174Z,22.53
2023-05-06T12:10:10.366Z,22.50
2023-05-06T12:11:10.157Z,22.55
2023-05-06T12:12:10.176Z,22.60
2023-05-06T12:13:10.238Z,22.72
2023-05-06T12:14:10.135Z,22.81
2023-05-06T12:15:10.129Z,23.12
2023-05-06T12:16:10.131Z,23.25
2023-05-06T12:17:10.158Z,23.18
2023-05-06T12:18:10.168Z,23.00
2023-05-06T12:19:10.092Z,22.70
2023-05-06T12:20:10.210Z,22.47
2023-05-06T12:21:10.074Z,22.51
2023-05-06T12:22:10.097Z,22.29
2023-05-06T12:23:10.114Z,21.82
2023-05-06T12:24:10.102Z,22.02
2023-05-06T12:25:10.206Z,22.26
2023-05-06T12:26:10.060Z,22.51
2023-05-06T12:27:10.079Z,22.93
2023-05-06T12:28:10.031Z,22.81
2023-05-06T12:29:10.029Z,22.99
2023-05-06T12:30:10.120Z,23.02
2023-05-06T12:31:10.028Z,22.99
2023-05-06T12:32:10.195Z,22.98
2023-05-06T12:33:09.986Z,22.93
2023-05-06T12:34:09.984Z,23.06
2023-05-06T12:35:09.981Z,23.20
2023-05-06T12:36:09.993Z,23.24
2023-05-06T12:37:09.960Z,23.32
2023-05-06T12:38:09.958Z,23.44
2023-05-06T12:39:09.999Z,23.18
2023-05-06T12:40:10.057Z,22.94
2023-05-06T12:41:09.961Z,22.85
2023-05-06T12:42:09.980Z,23.03
2023-05-06T12:43:09.908Z,22.96
2023-05-06T12:44:09.906Z,22.76
2023-05-06T12:45:09.885Z,22.47
2023-05-06T12:46:09.978Z,22.29
2023-05-06T12:47:09.916Z,21.95
2023-05-06T12:48:09.922Z,21.75
2023-05-06T12:49:09.864Z,21.61
2023-05-06T12:50:10.123Z,21.30
2023-05-06T12:51:09.865Z,21.24
2023-05-06T12:52:09.840Z,21.21